Volgo-don 123 — UAWC-3 — position and weather

sailwx.info

Track history (hours):
 
Tides and Currents Weather Stations Pressure Air Temp Water Temp Dewpoint Dewpoint Depression Visibility Wind Speed Wind Dir Waves Ship Positions

Volgo-don 123

Last reported at 2017-Oct-22 16:35 UTC. Time now 2017-Dec-11 15:24 UTC.
Position N 45°30' E 036°46'.
Warning: this ship's position is 49 days out of date.

Length 138 m; draft 3.5 m.

Type: Ship. MMSI: 273432580.

Date/timePositionNaut miles runAvg speedWind from/ knotsBaromVisibWave heightAir tempDewpointWater temp
2017-Oct-22 16:35N 45°30' E 036°46'1 7.4
2017-Oct-22 16:29N 45°30' E 036°45'3 7.1
2017-Oct-22 16:00N 45°27' E 036°42'4 7.6
2017-Oct-22 15:30N 45°24' E 036°41'3 6.3
2017-Oct-22 15:00N 45°21' E 036°39'3 6.3
2017-Oct-22 14:30N 45°19' E 036°35'3 6.0
2017-Oct-22 14:01N 45°19' E 036°31'4 7.2
2017-Oct-22 13:30N 45°15' E 036°29'3 1.1
2017-Oct-22 11:00N 45°13' E 036°30'0 0.2
2017-Oct-22 10:23N 45°13' E 036°30'0 0.1
2017-Oct-22 10:00N 45°13' E 036°30'0 0.0
2017-Oct-22 09:28N 45°13' E 036°30'0 0.0
2017-Oct-22 09:00N 45°13' E 036°30'0 0.1
2017-Oct-22 08:30N 45°13' E 036°30'0 0.1
2017-Oct-22 06:20N 45°13' E 036°30'0 0.3
2017-Oct-22 06:00N 45°13' E 036°30'0 0.0
2017-Oct-22 05:27N 45°13' E 036°30'0 0.0
2017-Oct-22 04:59N 45°13' E 036°30'0 0.0
2017-Oct-22 04:27N 45°13' E 036°30'3 1.6
2017-Oct-22 02:15N 45°10' E 036°33'0 1.0
2017-Oct-22 02:00N 45°10' E 036°32'0 0.0
2017-Oct-22 01:30N 45°10' E 036°32'0 0.0
2017-Oct-22 01:00N 45°10' E 036°32'0 0.0
2017-Oct-22 00:30N 45°10' E 036°32'0 0.0
2017-Oct-22 00:00N 45°10' E 036°32'0 0.0
2017-Oct-21 23:30N 45°10' E 036°32'0 0.0
2017-Oct-21 23:00N 45°10' E 036°32'0 0.0
2017-Oct-21 22:28N 45°10' E 036°32'0 0.0
2017-Oct-21 21:41N 45°10' E 036°32'0 0.0
2017-Oct-21 21:30N 45°10' E 036°32'0 0.0
2017-Oct-21 20:57N 45°10' E 036°32'0 0.0
2017-Oct-21 20:30N 45°10' E 036°32'0 0.1
2017-Oct-21 20:00N 45°10' E 036°32'0 0.0
2017-Oct-21 19:30N 45°10' E 036°32'0 0.1
2017-Oct-21 19:00N 45°10' E 036°32'0 0.0
2017-Oct-21 18:30N 45°10' E 036°32'0 0.0
2017-Oct-21 18:00N 45°10' E 036°32'0 0.0
2017-Oct-21 17:30N 45°10' E 036°32'0 0.1
2017-Oct-21 16:57N 45°10' E 036°32'0 0.0
2017-Oct-21 16:27N 45°10' E 036°32'0 0.0
2017-Oct-21 16:00N 45°10' E 036°32'0 0.0
2017-Oct-21 15:30N 45°10' E 036°32'0 0.0
2017-Oct-21 14:59N 45°10' E 036°32'0 0.0
2017-Oct-21 14:30N 45°10' E 036°32'0 0.4
2017-Oct-21 13:30N 45°10' E 036°32'0 0.1
2017-Oct-21 12:55N 45°10' E 036°32'0 0.0
2017-Oct-21 12:30N 45°10' E 036°32'0 0.0
2017-Oct-21 12:00N 45°10' E 036°32'0 0.0
2017-Oct-21 11:31N 45°10' E 036°32'0 0.5
2017-Oct-21 10:59N 45°10' E 036°32'3 5.2
2017-Oct-21 10:26N 45°12' E 036°28'3 5.8
2017-Oct-21 10:00N 45°14' E 036°28'3 5.5
2017-Oct-21 09:30N 45°17' E 036°29'3 5.2
2017-Oct-21 09:00N 45°19' E 036°31'3 5.5
2017-Oct-21 08:30N 45°19' E 036°35'3 5.9
2017-Oct-21 08:00N 45°21' E 036°39'2 3.8
2017-Oct-21 07:30N 45°22' E 036°40'3 6.8
2017-Oct-21 07:00N 45°26' E 036°42'4 7.1
2017-Oct-21 06:30N 45°28' E 036°45'4 7.0
2017-Oct-21 06:00N 45°30' E 036°49'2 3.7
2017-Oct-21 05:24N 45°31' E 036°52'0 0.0
2017-Oct-21 04:55N 45°31' E 036°52'0 0.0
2017-Oct-21 04:27N 45°31' E 036°52'0 0.0
2017-Oct-21 04:00N 45°31' E 036°52'0 0.0
2017-Oct-21 01:35N 45°31' E 036°52'0 0.0
2017-Oct-20 15:42N 45°31' E 036°52'0 0.0
2017-Oct-20 15:27N 45°31' E 036°52'0 0.0
2017-Oct-20 14:22N 45°31' E 036°52'0 0.0
2017-Oct-20 11:41N 45°31' E 036°52'0 0.1
2017-Oct-20 11:30N 45°31' E 036°52'0 0.0
2017-Oct-20 11:00N 45°31' E 036°52'0 0.0
2017-Oct-20 09:35N 45°31' E 036°52'0 0.0
2017-Oct-20 09:01N 45°31' E 036°52'0 0.0
2017-Oct-20 09:00N 45°31' E 036°52'0 0.0
2017-Oct-20 08:05N 45°31' E 036°52'0 0.0
2017-Oct-20 07:53N 45°31' E 036°52'0 0.0
2017-Oct-20 07:30N 45°31' E 036°52'0 0.0
2017-Oct-20 06:48N 45°31' E 036°52'0 0.0
2017-Oct-20 06:13N 45°31' E 036°52'0 0.0
2017-Oct-20 05:46N 45°31' E 036°52'0 0.0
2017-Oct-20 05:30N 45°31' E 036°52'0 0.0
2017-Oct-20 04:58N 45°31' E 036°52'0 0.0
2017-Oct-20 04:29N 45°31' E 036°52'0 0.0
2017-Oct-20 03:55N 45°31' E 036°52'0 0.0
2017-Oct-19 19:46N 45°31' E 036°52'0 0.0
2017-Oct-19 12:10N 45°31' E 036°52'0 0.0
2017-Oct-19 05:24N 45°31' E 036°52'0 0.0
2017-Oct-19 05:00N 45°31' E 036°52'0 0.0
2017-Oct-18 14:53N 45°31' E 036°52'0 0.0
2017-Oct-18 14:00N 45°31' E 036°52'0 0.0
2017-Oct-18 13:29N 45°31' E 036°52'0 0.0
2017-Oct-18 12:58N 45°31' E 036°52'0 0.0
2017-Oct-18 12:16N 45°31' E 036°52'0 0.0
2017-Oct-18 11:59N 45°31' E 036°52'0 0.0
2017-Oct-18 11:30N 45°31' E 036°52'0 0.0
2017-Oct-18 10:58N 45°31' E 036°52'0 0.0
2017-Oct-18 10:15N 45°31' E 036°52'0 0.0
2017-Oct-18 09:57N 45°31' E 036°52'0 0.1
2017-Oct-18 09:20N 45°31' E 036°52'0 0.0
2017-Oct-18 08:47N 45°31' E 036°52'0 0.0
2017-Oct-18 08:29N 45°31' E 036°52'0 0.0
2017-Oct-18 08:00N 45°31' E 036°52'0 0.0
2017-Oct-18 07:19N 45°31' E 036°52'0 0.0
2017-Oct-18 07:00N 45°31' E 036°52'0 0.0
2017-Oct-18 06:15N 45°31' E 036°52'0 0.0
2017-Oct-18 05:18N 45°31' E 036°52'0 0.0
2017-Oct-18 04:58N 45°31' E 036°52'0 0.0
2017-Oct-18 03:04N 45°31' E 036°52'0 0.0
2017-Oct-18 00:25N 45°31' E 036°52'0 0.0
2017-Oct-17 23:59N 45°31' E 036°52'0 0.0
2017-Oct-17 23:02N 45°31' E 036°52'0 0.1
2017-Oct-17 22:59N 45°31' E 036°52'  
Track history (hours):
 
Tides and Currents Weather Stations Pressure Air Temp Water Temp Dewpoint Dewpoint Depression Visibility Wind Speed Wind Dir Waves Ship Positions

Volgo-don 123

Last reported at 2017-Oct-22 16:35 UTC. Time now 2017-Dec-11 15:24 UTC.
Position N 45°30' E 036°46'.
Warning: this ship's position is 49 days out of date.

Length 138 m; draft 3.5 m.

Type: Ship. MMSI: 273432580.

Date/timePositionNaut miles runAvg speedWind from/ knotsBaromVisibWave heightAir tempDewpointWater temp
2017-Oct-22 16:35N 45°30' E 036°46'1 7.4
2017-Oct-22 16:29N 45°30' E 036°45'3 7.1
2017-Oct-22 16:00N 45°27' E 036°42'4 7.6
2017-Oct-22 15:30N 45°24' E 036°41'3 6.3
2017-Oct-22 15:00N 45°21' E 036°39'3 6.3
2017-Oct-22 14:30N 45°19' E 036°35'3 6.0
2017-Oct-22 14:01N 45°19' E 036°31'4 7.2
2017-Oct-22 13:30N 45°15' E 036°29'3 1.1
2017-Oct-22 11:00N 45°13' E 036°30'0 0.2
2017-Oct-22 10:23N 45°13' E 036°30'0 0.1
2017-Oct-22 10:00N 45°13' E 036°30'0 0.0
2017-Oct-22 09:28N 45°13' E 036°30'0 0.0
2017-Oct-22 09:00N 45°13' E 036°30'0 0.1
2017-Oct-22 08:30N 45°13' E 036°30'0 0.1
2017-Oct-22 06:20N 45°13' E 036°30'0 0.3
2017-Oct-22 06:00N 45°13' E 036°30'0 0.0
2017-Oct-22 05:27N 45°13' E 036°30'0 0.0
2017-Oct-22 04:59N 45°13' E 036°30'0 0.0
2017-Oct-22 04:27N 45°13' E 036°30'3 1.6
2017-Oct-22 02:15N 45°10' E 036°33'0 1.0
2017-Oct-22 02:00N 45°10' E 036°32'0 0.0
2017-Oct-22 01:30N 45°10' E 036°32'0 0.0
2017-Oct-22 01:00N 45°10' E 036°32'0 0.0
2017-Oct-22 00:30N 45°10' E 036°32'0 0.0
2017-Oct-22 00:00N 45°10' E 036°32'0 0.0
2017-Oct-21 23:30N 45°10' E 036°32'0 0.0
2017-Oct-21 23:00N 45°10' E 036°32'0 0.0
2017-Oct-21 22:28N 45°10' E 036°32'0 0.0
2017-Oct-21 21:41N 45°10' E 036°32'0 0.0
2017-Oct-21 21:30N 45°10' E 036°32'0 0.0
2017-Oct-21 20:57N 45°10' E 036°32'0 0.0
2017-Oct-21 20:30N 45°10' E 036°32'0 0.1
2017-Oct-21 20:00N 45°10' E 036°32'0 0.0
2017-Oct-21 19:30N 45°10' E 036°32'0 0.1
2017-Oct-21 19:00N 45°10' E 036°32'0 0.0
2017-Oct-21 18:30N 45°10' E 036°32'0 0.0
2017-Oct-21 18:00N 45°10' E 036°32'0 0.0
2017-Oct-21 17:30N 45°10' E 036°32'0 0.1
2017-Oct-21 16:57N 45°10' E 036°32'0 0.0
2017-Oct-21 16:27N 45°10' E 036°32'0 0.0
2017-Oct-21 16:00N 45°10' E 036°32'0 0.0
2017-Oct-21 15:30N 45°10' E 036°32'0 0.0
2017-Oct-21 14:59N 45°10' E 036°32'0 0.0
2017-Oct-21 14:30N 45°10' E 036°32'0 0.4
2017-Oct-21 13:30N 45°10' E 036°32'0 0.1
2017-Oct-21 12:55N 45°10' E 036°32'0 0.0
2017-Oct-21 12:30N 45°10' E 036°32'0 0.0
2017-Oct-21 12:00N 45°10' E 036°32'0 0.0
2017-Oct-21 11:31N 45°10' E 036°32'0 0.5
2017-Oct-21 10:59N 45°10' E 036°32'3 5.2
2017-Oct-21 10:26N 45°12' E 036°28'3 5.8
2017-Oct-21 10:00N 45°14' E 036°28'3 5.5
2017-Oct-21 09:30N 45°17' E 036°29'3 5.2
2017-Oct-21 09:00N 45°19' E 036°31'3 5.5
2017-Oct-21 08:30N 45°19' E 036°35'3 5.9
2017-Oct-21 08:00N 45°21' E 036°39'2 3.8
2017-Oct-21 07:30N 45°22' E 036°40'3 6.8
2017-Oct-21 07:00N 45°26' E 036°42'4 7.1
2017-Oct-21 06:30N 45°28' E 036°45'4 7.0
2017-Oct-21 06:00N 45°30' E 036°49'2 3.7
2017-Oct-21 05:24N 45°31' E 036°52'0 0.0
2017-Oct-21 04:55N 45°31' E 036°52'0 0.0
2017-Oct-21 04:27N 45°31' E 036°52'0 0.0
2017-Oct-21 04:00N 45°31' E 036°52'0 0.0
2017-Oct-21 01:35N 45°31' E 036°52'0 0.0
2017-Oct-20 15:42N 45°31' E 036°52'0 0.0
2017-Oct-20 15:27N 45°31' E 036°52'0 0.0
2017-Oct-20 14:22N 45°31' E 036°52'0 0.0
2017-Oct-20 11:41N 45°31' E 036°52'0 0.1
2017-Oct-20 11:30N 45°31' E 036°52'0 0.0
2017-Oct-20 11:00N 45°31' E 036°52'0 0.0
2017-Oct-20 09:35N 45°31' E 036°52'0 0.0
2017-Oct-20 09:01N 45°31' E 036°52'0 0.0
2017-Oct-20 09:00N 45°31' E 036°52'0 0.0
2017-Oct-20 08:05N 45°31' E 036°52'0 0.0
2017-Oct-20 07:53N 45°31' E 036°52'0 0.0
2017-Oct-20 07:30N 45°31' E 036°52'0 0.0
2017-Oct-20 06:48N 45°31' E 036°52'0 0.0
2017-Oct-20 06:13N 45°31' E 036°52'0 0.0
2017-Oct-20 05:46N 45°31' E 036°52'0 0.0
2017-Oct-20 05:30N 45°31' E 036°52'0 0.0
2017-Oct-20 04:58N 45°31' E 036°52'0 0.0
2017-Oct-20 04:29N 45°31' E 036°52'0 0.0
2017-Oct-20 03:55N 45°31' E 036°52'0 0.0
2017-Oct-19 19:46N 45°31' E 036°52'0 0.0
2017-Oct-19 12:10N 45°31' E 036°52'0 0.0
2017-Oct-19 05:24N 45°31' E 036°52'0 0.0
2017-Oct-19 05:00N 45°31' E 036°52'0 0.0
2017-Oct-18 14:53N 45°31' E 036°52'0 0.0
2017-Oct-18 14:00N 45°31' E 036°52'0 0.0
2017-Oct-18 13:29N 45°31' E 036°52'0 0.0
2017-Oct-18 12:58N 45°31' E 036°52'0 0.0
2017-Oct-18 12:16N 45°31' E 036°52'0 0.0
2017-Oct-18 11:59N 45°31' E 036°52'0 0.0
2017-Oct-18 11:30N 45°31' E 036°52'0 0.0
2017-Oct-18 10:58N 45°31' E 036°52'0 0.0
2017-Oct-18 10:15N 45°31' E 036°52'0 0.0
2017-Oct-18 09:57N 45°31' E 036°52'0 0.1
2017-Oct-18 09:20N 45°31' E 036°52'0 0.0
2017-Oct-18 08:47N 45°31' E 036°52'0 0.0
2017-Oct-18 08:29N 45°31' E 036°52'0 0.0
2017-Oct-18 08:00N 45°31' E 036°52'0 0.0
2017-Oct-18 07:19N 45°31' E 036°52'0 0.0
2017-Oct-18 07:00N 45°31' E 036°52'0 0.0
2017-Oct-18 06:15N 45°31' E 036°52'0 0.0
2017-Oct-18 05:18N 45°31' E 036°52'0 0.0
2017-Oct-18 04:58N 45°31' E 036°52'0 0.0
2017-Oct-18 03:04N 45°31' E 036°52'0 0.0
2017-Oct-18 00:25N 45°31' E 036°52'0 0.0
2017-Oct-17 23:59N 45°31' E 036°52'0 0.0
2017-Oct-17 23:02N 45°31' E 036°52'0 0.1
2017-Oct-17 22:59N 45°31' E 036°52'  

Dump ship's entire track history